createdAt,value
2023-03-27T00:00:22.883Z,0.50
2023-03-27T00:04:23.097Z,0.34
2023-03-27T00:08:23.033Z,0.43
2023-03-27T00:12:22.994Z,0.51
2023-03-27T00:16:22.953Z,0.51
2023-03-27T00:20:22.845Z,0.51
2023-03-27T00:24:22.786Z,0.51
2023-03-27T00:28:22.757Z,0.51
2023-03-27T00:32:22.911Z,0.52
2023-03-27T00:36:22.839Z,0.54
2023-03-27T00:40:22.779Z,0.53
2023-03-27T00:44:22.780Z,0.51
2023-03-27T00:48:22.702Z,0.51
2023-03-27T00:52:22.649Z,0.52
2023-03-27T00:56:22.616Z,0.53
2023-03-27T01:00:22.706Z,0.53
2023-03-27T01:04:22.612Z,0.54
2023-03-27T01:08:22.565Z,0.53
2023-03-27T01:12:22.505Z,0.51
2023-03-27T01:16:22.563Z,0.52
2023-03-27T01:20:22.420Z,0.53
2023-03-27T01:24:22.382Z,0.53
2023-03-27T01:28:22.514Z,0.54
2023-03-27T01:32:22.598Z,0.54
2023-03-27T01:36:22.441Z,0.52
2023-03-27T01:40:22.422Z,0.53
2023-03-27T01:44:22.368Z,0.54
2023-03-27T01:48:22.366Z,0.53
2023-03-27T01:52:22.318Z,0.53
2023-03-27T01:56:22.572Z,0.54
2023-03-27T02:00:22.547Z,0.52
2023-03-27T02:04:22.612Z,0.52
2023-03-27T02:08:22.170Z,0.53
2023-03-27T02:12:22.145Z,0.54
2023-03-27T02:16:22.350Z,0.53
2023-03-27T02:20:22.292Z,0.53
2023-03-27T02:24:22.235Z,0.52
2023-03-27T02:28:22.186Z,0.54
2023-03-27T02:32:22.656Z,0.53
2023-03-27T02:36:22.614Z,0.53
2023-03-27T02:40:22.081Z,0.54
2023-03-27T02:44:22.246Z,0.55
2023-03-27T02:48:22.402Z,0.53
2023-03-27T02:52:22.401Z,0.54
2023-03-27T02:56:22.325Z,0.53
2023-03-27T03:00:22.293Z,0.53
2023-03-27T03:04:22.217Z,0.54
2023-03-27T03:08:22.199Z,0.52
2023-03-27T03:12:22.108Z,0.53
2023-03-27T03:16:22.261Z,0.54
2023-03-27T03:20:22.421Z,0.53
2023-03-27T03:24:22.435Z,0.54
2023-03-27T03:28:22.362Z,0.50
2023-03-27T03:32:22.384Z,0.56
2023-03-27T03:36:22.288Z,0.53
2023-03-27T03:40:22.268Z,0.52
2023-03-27T03:44:22.223Z,0.54
2023-03-27T03:48:22.252Z,0.54
2023-03-27T03:52:22.189Z,0.53
2023-03-27T03:56:22.144Z,0.53
2023-03-27T04:00:22.605Z,0.53
2023-03-27T04:04:22.191Z,0.52
2023-03-27T04:08:22.016Z,0.55
2023-03-27T04:12:22.636Z,0.55
2023-03-27T04:16:22.706Z,0.51
2023-03-27T04:20:22.163Z,0.53
2023-03-27T04:24:22.060Z,0.52
2023-03-27T04:28:22.083Z,0.55
2023-03-27T04:32:22.306Z,0.51
2023-03-27T04:36:22.240Z,0.54
2023-03-27T04:40:22.159Z,0.54
2023-03-27T04:44:22.122Z,0.54
2023-03-27T04:48:22.073Z,0.53
2023-03-27T04:52:22.205Z,0.53
2023-03-27T05:00:21.165Z,0.53
2023-03-27T05:04:22.157Z,0.54
2023-03-27T05:08:22.180Z,0.55
2023-03-27T05:12:22.215Z,0.55
2023-03-27T05:16:22.766Z,0.55
2023-03-27T05:20:22.251Z,0.54
2023-03-27T05:24:22.183Z,0.60
2023-03-27T05:28:22.182Z,0.61
2023-03-27T05:32:22.823Z,0.68
2023-03-27T05:36:22.469Z,0.78
2023-03-27T05:40:22.686Z,0.83
2023-03-27T05:44:23.185Z,1.75
2023-03-27T05:48:23.215Z,1.47
2023-03-27T05:52:23.203Z,1.59
2023-03-27T05:56:23.127Z,1.79
2023-03-27T06:00:23.184Z,2.21
2023-03-27T06:04:23.292Z,2.44
2023-03-27T06:08:23.205Z,2.92
2023-03-27T06:12:22.781Z,3.47
2023-03-27T06:16:22.849Z,4.06
2023-03-27T06:20:22.610Z,4.47
2023-03-27T06:24:22.680Z,4.87
2023-03-27T06:28:22.482Z,5.27
2023-03-27T06:32:22.733Z,5.76
2023-03-27T06:36:25.957Z,6.74
2023-03-27T06:40:22.727Z,6.95
2023-03-27T06:44:22.209Z,7.58
2023-03-27T06:48:22.725Z,8.05
2023-03-27T06:52:22.345Z,8.19
2023-03-27T06:56:22.196Z,8.93
2023-03-27T07:00:22.228Z,9.10
2023-03-27T07:04:22.199Z,9.07
2023-03-27T07:08:24.781Z,9.58
2023-03-27T07:12:21.492Z,9.79
2023-03-27T07:16:21.773Z,10.64
2023-03-27T07:20:21.700Z,2.44
2023-03-27T07:24:21.275Z,0.72
2023-03-27T07:28:21.701Z,1.31
2023-03-27T07:32:34.094Z,1.93
2023-03-27T07:36:21.704Z,2.30
2023-03-27T07:40:29.355Z,3.38
2023-03-27T07:44:21.116Z,3.79
2023-03-27T07:48:21.209Z,4.53
2023-03-27T07:52:21.302Z,4.74
2023-03-27T07:56:21.261Z,5.09
2023-03-27T08:00:21.780Z,5.07
2023-03-27T08:04:21.442Z,1.45
2023-03-27T08:08:21.310Z,0.64
2023-03-27T08:12:20.883Z,0.48
2023-03-27T08:16:20.758Z,0.51
2023-03-27T08:20:20.741Z,0.50
2023-03-27T08:24:20.752Z,0.51
2023-03-27T08:28:20.505Z,0.48
2023-03-27T08:32:20.825Z,0.65
2023-03-27T08:36:20.756Z,1.82
2023-03-27T08:40:20.856Z,2.65
2023-03-27T08:44:20.404Z,4.14
2023-03-27T08:48:21.874Z,5.56
2023-03-27T08:52:22.267Z,7.22
2023-03-27T08:56:20.479Z,8.35
2023-03-27T09:00:20.528Z,11.14
2023-03-27T09:04:19.854Z,13.25
2023-03-27T09:08:19.837Z,15.50
2023-03-27T09:12:19.832Z,17.26
2023-03-27T09:16:19.888Z,19.16
2023-03-27T09:20:19.763Z,21.14
2023-03-27T09:24:19.806Z,23.51
2023-03-27T09:28:29.269Z,4.44
2023-03-27T09:32:19.838Z,2.46
2023-03-27T09:36:19.746Z,0.50
2023-03-27T09:40:19.797Z,1.07
2023-03-27T09:44:20.303Z,2.21
2023-03-27T09:48:19.861Z,3.76
2023-03-27T09:52:19.643Z,4.88
2023-03-27T09:56:20.520Z,6.45
2023-03-27T10:00:19.832Z,8.43
2023-03-27T10:04:20.570Z,10.25
2023-03-27T10:08:20.050Z,12.22
2023-03-27T10:12:19.862Z,14.67
2023-03-27T10:16:19.931Z,16.91
2023-03-27T10:20:19.836Z,20.22
2023-03-27T10:24:19.620Z,21.94
2023-03-27T10:28:19.836Z,20.78
2023-03-27T10:32:20.796Z,20.64
2023-03-27T10:36:20.852Z,21.92
2023-03-27T10:40:19.659Z,26.52
2023-03-27T10:44:20.372Z,31.93
2023-03-27T10:48:19.857Z,36.20
2023-03-27T10:52:19.941Z,39.30
2023-03-27T10:56:19.916Z,41.84
2023-03-27T11:00:19.560Z,45.71
2023-03-27T11:04:19.401Z,48.08
2023-03-27T11:08:19.360Z,50.72
2023-03-27T11:12:19.355Z,57.36
2023-03-27T11:16:19.177Z,56.68
2023-03-27T11:20:19.422Z,57.82
2023-03-27T11:24:19.356Z,52.30
2023-03-27T11:28:19.923Z,18.37
2023-03-27T11:32:19.843Z,11.70
2023-03-27T11:36:19.450Z,8.52
2023-03-27T11:40:19.839Z,5.50
2023-03-27T11:44:20.760Z,4.21
2023-03-27T11:48:20.372Z,3.22
2023-03-27T11:52:20.379Z,2.42
2023-03-27T11:56:20.425Z,2.65
2023-03-27T12:00:20.343Z,1.03
2023-03-27T12:04:20.441Z,1.89
2023-03-27T12:08:20.519Z,3.92
2023-03-27T12:12:20.441Z,5.48
2023-03-27T12:16:20.907Z,7.48
2023-03-27T12:20:19.929Z,9.72
2023-03-27T12:24:19.657Z,11.69
2023-03-27T12:28:23.103Z,14.32
2023-03-27T12:32:19.908Z,16.35
2023-03-27T12:36:19.389Z,21.31
2023-03-27T12:40:19.930Z,24.65
2023-03-27T12:44:19.901Z,8.47
2023-03-27T12:48:19.698Z,1.71
2023-03-27T12:52:20.038Z,0.78
2023-03-27T12:56:19.875Z,0.57
2023-03-27T13:00:20.441Z,0.52
2023-03-27T13:04:21.174Z,0.81
2023-03-27T13:08:20.495Z,1.97
2023-03-27T13:12:20.861Z,3.32
2023-03-27T13:16:20.924Z,3.85
2023-03-27T13:20:20.951Z,4.51
2023-03-27T13:24:20.481Z,4.92
2023-03-27T13:28:20.879Z,5.92
2023-03-27T13:32:20.439Z,6.29
2023-03-27T13:36:20.397Z,6.40
2023-03-27T13:40:20.246Z,6.78
2023-03-27T13:44:20.396Z,6.84
2023-03-27T13:48:20.457Z,7.28
2023-03-27T13:52:20.078Z,7.49
2023-03-27T13:56:20.392Z,7.64
2023-03-27T14:00:20.464Z,8.37
2023-03-27T14:04:20.463Z,8.20
2023-03-27T14:08:20.432Z,8.58
2023-03-27T14:12:20.401Z,8.68
2023-03-27T14:16:20.277Z,8.86
2023-03-27T14:20:20.925Z,9.40
2023-03-27T14:24:20.499Z,9.27
2023-03-27T14:28:20.433Z,9.17
2023-03-27T14:32:20.086Z,9.48
2023-03-27T14:36:20.435Z,9.68
2023-03-27T14:40:20.572Z,9.77
2023-03-27T14:44:20.165Z,10.01
2023-03-27T14:48:20.809Z,10.31
2023-03-27T14:52:20.064Z,10.52
2023-03-27T14:56:20.401Z,9.82
2023-03-27T15:00:20.046Z,10.58
2023-03-27T15:04:20.579Z,10.14
2023-03-27T15:08:19.942Z,10.15
2023-03-27T15:12:19.938Z,10.04
2023-03-27T15:16:19.931Z,9.58
2023-03-27T15:20:20.403Z,9.79
2023-03-27T15:24:20.097Z,9.84
2023-03-27T15:28:20.398Z,9.61
2023-03-27T15:32:19.941Z,9.53
2023-03-27T15:36:19.856Z,9.35
2023-03-27T15:40:19.844Z,9.34
2023-03-27T15:44:19.850Z,8.72
2023-03-27T15:48:19.934Z,9.06
2023-03-27T15:52:19.755Z,8.93
2023-03-27T15:56:19.727Z,8.33
2023-03-27T16:00:20.123Z,8.47
2023-03-27T16:04:19.771Z,8.36
2023-03-27T16:08:19.684Z,8.01
2023-03-27T16:12:19.842Z,8.26
2023-03-27T16:16:19.706Z,7.71
2023-03-27T16:20:19.561Z,8.08
2023-03-27T16:24:19.503Z,7.58
2023-03-27T16:28:19.488Z,7.74
2023-03-27T16:32:19.482Z,7.63
2023-03-27T16:36:19.433Z,7.73
2023-03-27T16:40:19.399Z,8.27
2023-03-27T16:44:19.387Z,9.76
2023-03-27T16:48:19.318Z,10.02
2023-03-27T16:52:19.263Z,10.31
2023-03-27T16:56:19.468Z,9.71
2023-03-27T17:00:19.677Z,9.47
2023-03-27T17:04:19.896Z,9.30
2023-03-27T17:08:19.899Z,8.73
2023-03-27T17:12:19.781Z,8.97
2023-03-27T17:16:19.745Z,8.54
2023-03-27T17:20:19.675Z,7.96
2023-03-27T17:24:19.702Z,8.14
2023-03-27T17:28:19.629Z,7.98
2023-03-27T17:32:19.581Z,7.64
2023-03-27T17:36:26.875Z,7.56
2023-03-27T17:40:19.425Z,7.50
2023-03-27T17:44:19.417Z,6.76
2023-03-27T17:48:19.406Z,6.78
2023-03-27T17:52:19.290Z,6.71
2023-03-27T17:56:19.235Z,6.81
2023-03-27T18:00:19.157Z,6.30
2023-03-27T18:04:19.232Z,6.08
2023-03-27T18:08:19.418Z,6.19
2023-03-27T18:12:19.342Z,6.06
2023-03-27T18:16:19.344Z,6.04
2023-03-27T18:20:19.478Z,5.53
2023-03-27T18:24:19.226Z,5.83
2023-03-27T18:28:19.206Z,5.16
2023-03-27T18:32:19.124Z,5.40
2023-03-27T18:36:19.463Z,4.74
2023-03-27T18:40:19.343Z,4.80
2023-03-27T18:44:19.236Z,4.52
2023-03-27T18:48:19.231Z,4.68
2023-03-27T18:52:19.294Z,4.61
2023-03-27T18:56:19.080Z,4.41
2023-03-27T19:00:19.028Z,4.33
2023-03-27T19:04:18.057Z,4.10
2023-03-27T19:08:19.073Z,4.04
2023-03-27T19:12:19.028Z,3.92
2023-03-27T19:16:19.014Z,3.92
2023-03-27T19:20:18.929Z,3.81
2023-03-27T19:24:18.898Z,3.69
2023-03-27T19:28:18.877Z,3.70
2023-03-27T19:32:18.818Z,3.66
2023-03-27T19:36:18.810Z,3.57
2023-03-27T19:40:18.807Z,3.38
2023-03-27T19:44:18.675Z,3.44
2023-03-27T19:48:19.565Z,3.30
2023-03-27T19:52:18.929Z,3.36
2023-03-27T19:56:19.101Z,3.22
2023-03-27T20:00:19.292Z,3.29
2023-03-27T20:04:19.480Z,3.33
2023-03-27T20:08:19.448Z,2.99
2023-03-27T20:12:19.347Z,3.10
2023-03-27T20:16:19.342Z,3.19
2023-03-27T20:20:19.268Z,3.12
2023-03-27T20:24:19.224Z,3.28
2023-03-27T20:28:19.153Z,3.39
2023-03-27T20:32:19.249Z,3.17
2023-03-27T20:36:19.496Z,3.12
2023-03-27T20:40:19.706Z,3.06
2023-03-27T20:44:19.589Z,3.01
2023-03-27T20:48:19.518Z,3.15
2023-03-27T20:52:19.466Z,2.87
2023-03-27T20:56:19.424Z,2.97
2023-03-27T21:00:19.385Z,2.88
2023-03-27T21:04:19.329Z,2.93
2023-03-27T21:08:19.375Z,2.56
2023-03-27T21:12:19.385Z,2.71
2023-03-27T21:16:19.411Z,2.79
2023-03-27T21:20:19.253Z,2.82
2023-03-27T21:24:19.230Z,2.73
2023-03-27T21:28:19.150Z,2.58
2023-03-27T21:32:19.915Z,2.58
2023-03-27T21:36:19.230Z,2.52
2023-03-27T21:40:19.401Z,2.54
2023-03-27T21:44:19.366Z,2.53
2023-03-27T21:48:19.349Z,2.58
2023-03-27T21:52:19.250Z,2.49
2023-03-27T21:56:19.239Z,2.38
2023-03-27T22:00:19.151Z,2.40
2023-03-27T22:04:21.609Z,2.41
2023-03-27T22:08:19.068Z,2.35
2023-03-27T22:12:19.056Z,2.40
2023-03-27T22:16:19.091Z,2.31
2023-03-27T22:20:18.991Z,2.38
2023-03-27T22:24:18.854Z,2.35
2023-03-27T22:28:18.862Z,2.28
2023-03-27T22:32:18.872Z,2.25
2023-03-27T22:36:18.853Z,2.30
2023-03-27T22:40:18.799Z,2.24
2023-03-27T22:44:18.783Z,2.12
2023-03-27T22:48:18.756Z,2.13
2023-03-27T22:52:18.734Z,2.13
2023-03-27T22:56:18.653Z,2.18
2023-03-27T23:00:18.621Z,2.10
2023-03-27T23:56:24.182Z,0.50
